Klamath Falls, OR (97601)

1:35 PM PST on February 06, 2016 (GMT -0800)
Klamath Falls City Schools | | Change Station
CLOSE
Current Station
Personal Weather Station
Location: Klamath Falls, OR
Elevation: 4104 ft
Nearby Weather Stations

Elev 4104 ft 42.22 °N, 121.75 °W | Updated 3 seconds ago

Overcast
Overcast
55.0 °F
Feels Like 55.0 °F
N
0.0
Wind Variable Wind from SW
Gusts 0.0 mph

Today
High -- | Low -- °F
--% Chance of Precip.
Yesterday
High -- | Low -- °F
Precip. -- in
Pressure 30.41 in
Visibility 10.0 miles
Clouds Overcast 11000 ft
Dew Point 38 °F
Humidity 52%
Rainfall 0.00 in
Snow Depth Not available.
7:15 AM 5:27 PM
Waning Crescent, 4% visible
METAR KLMT 062053Z 13003KT 10SM OVC110 08/00 A3040 RMK AO2 SLP297 T00830000 58013
Pressure 30.41 in
Visibility 10.0 miles
Clouds Overcast 11000 ft
Dew Point 38 °F
Humidity 52%
Rainfall 0.00 in
Snow Depth Not available.
7:15 AM 5:27 PM
Waning Crescent, 4% visible
METAR KLMT 062053Z 13003KT 10SM OVC110 08/00 A3040 RMK AO2 SLP297 T00830000 58013

10-Day Weather Forecast

Almanac

Astronomy

Feb. 06, 2016 Rise Set
Actual Time
Civil Twilight
Nautical Twilight
Astronomical Twilight
Moon
Length of Visible Light
Length of Day
Tomorrow will be .
, % of the Moon is Illuminated

Today's Extremes

State Highs State Lows

Community

WunderPhotos

Upload Photos

1,891,052 photos uploaded!

WunderBlog® & News

Nearby

Air Quality

  Air Quality AQ Index Pollutant
Not available.

Snow Depth

Station Depth Elevation

Earthquake Activity

City Distance Mag. Time & Date
Minimum magnitude displayed is 2.5.

Coastal Water Temperatures

Place Temperature

Stations

Nearby Weather Stations

Station Location Temp. Windchill Dew Point Humidity Wind Precip. Elev Updated Type
                   

Watches & Warnings

There are currently no watches in effect.